createdAt,value
2019-01-14T00:00:10.241Z,99073.54
2019-01-14T00:02:39.947Z,99088.56
2019-01-14T00:05:09.709Z,99076.00
2019-01-14T00:07:39.393Z,99090.16
2019-01-14T00:10:09.062Z,99097.30
2019-01-14T00:12:38.689Z,99094.98
2019-01-14T00:15:08.912Z,99094.37
2019-01-14T00:17:38.578Z,99132.91
2019-01-14T00:20:08.396Z,99112.86
2019-01-14T00:22:37.986Z,99114.48
2019-01-14T00:25:07.785Z,99127.86
2019-01-14T00:27:37.450Z,99136.97
2019-01-14T00:30:10.406Z,99139.56
2019-01-14T00:32:40.061Z,99146.09
2019-01-14T00:35:10.212Z,99156.88
2019-01-14T00:37:39.821Z,99151.17
2019-01-14T00:40:12.189Z,99154.21
2019-01-14T00:42:42.204Z,99156.05
2019-01-14T00:45:12.068Z,99159.74
2019-01-14T00:47:41.762Z,99170.30
2019-01-14T00:50:12.775Z,99165.28
2019-01-14T00:52:42.561Z,99164.00
2019-01-14T00:55:12.615Z,99176.72
2019-01-14T00:57:42.167Z,99189.70
2019-01-14T01:00:15.908Z,99188.36
2019-01-14T01:02:45.593Z,99210.61
2019-01-14T01:05:15.326Z,99219.09
2019-01-14T01:07:45.062Z,99216.05
2019-01-14T01:10:14.973Z,99224.69
2019-01-14T01:12:44.670Z,99240.39
2019-01-14T01:15:16.060Z,99243.65
2019-01-14T01:17:46.076Z,99257.16
2019-01-14T01:20:21.082Z,99246.19
2019-01-14T01:22:50.768Z,99265.52
2019-01-14T01:25:20.518Z,99267.50
2019-01-14T01:27:50.168Z,99273.69
2019-01-14T01:30:20.007Z,99283.69
2019-01-14T01:32:49.571Z,99310.34
2019-01-14T01:35:19.235Z,99296.36
2019-01-14T01:37:48.947Z,99309.24
2019-01-14T01:40:21.992Z,99324.62
2019-01-14T01:42:51.818Z,99350.48
2019-01-14T01:45:21.610Z,99358.59
2019-01-14T01:47:51.243Z,99367.72
2019-01-14T01:50:20.822Z,99364.06
2019-01-14T01:52:50.404Z,99370.81
2019-01-14T01:55:20.011Z,99379.97
2019-01-14T01:57:49.704Z,99385.91
2019-01-14T02:00:20.988Z,99397.27
2019-01-14T02:02:51.162Z,99394.22
2019-01-14T02:05:21.210Z,99399.77
2019-01-14T02:07:50.890Z,99463.27
2019-01-14T02:10:22.255Z,99404.81
2019-01-14T02:12:51.952Z,99419.50
2019-01-14T02:15:22.457Z,99418.12
2019-01-14T02:17:52.266Z,99428.47
2019-01-14T02:20:21.944Z,99429.85
2019-01-14T02:22:51.574Z,99429.70
2019-01-14T02:25:21.424Z,99441.72
2019-01-14T02:27:51.054Z,99434.70
2019-01-14T02:30:22.571Z,99438.78
2019-01-14T02:32:52.399Z,99434.39
2019-01-14T02:35:22.075Z,99441.30
2019-01-14T02:37:51.694Z,99446.33
2019-01-14T02:40:22.406Z,99447.44
2019-01-14T02:42:52.081Z,99451.03
2019-01-14T02:45:21.707Z,99460.08
2019-01-14T02:47:51.463Z,99459.17
2019-01-14T02:50:21.184Z,99460.56
2019-01-14T02:52:50.773Z,99458.13
2019-01-14T02:55:20.433Z,99469.81
2019-01-14T02:57:50.024Z,99476.13
2019-01-14T03:00:22.614Z,99485.41
2019-01-14T03:02:52.360Z,99495.25
2019-01-14T03:05:21.983Z,99487.78
2019-01-14T03:07:51.594Z,99497.26
2019-01-14T03:10:21.290Z,99497.09
2019-01-14T03:12:51.029Z,99505.13
2019-01-14T03:15:20.870Z,99504.22
2019-01-14T03:17:50.570Z,99510.11
2019-01-14T03:20:20.267Z,99505.23
2019-01-14T03:22:49.802Z,99507.50
2019-01-14T03:25:19.470Z,99513.16
2019-01-14T03:27:49.207Z,99508.61
2019-01-14T03:30:19.647Z,99512.26
2019-01-14T03:32:49.400Z,99526.83
2019-01-14T03:35:19.076Z,99519.25
2019-01-14T03:37:48.725Z,99495.31
2019-01-14T03:40:18.748Z,99505.84
2019-01-14T03:42:48.330Z,99508.89
2019-01-14T03:45:18.688Z,99510.93
2019-01-14T03:47:48.506Z,99518.55
2019-01-14T03:50:21.504Z,99516.64
2019-01-14T03:52:51.516Z,99512.88
2019-01-14T03:55:21.159Z,99527.51
2019-01-14T03:57:52.176Z,99526.23
2019-01-14T04:00:21.863Z,99532.06
2019-01-14T04:02:51.425Z,99544.63
2019-01-14T04:05:21.206Z,99569.78
2019-01-14T04:07:50.876Z,99573.41
2019-01-14T04:10:20.700Z,99574.37
2019-01-14T04:12:50.242Z,99594.98
2019-01-14T04:15:20.399Z,99617.09
2019-01-14T04:17:49.979Z,99628.77
2019-01-14T04:20:20.203Z,99618.56
2019-01-14T04:22:51.537Z,99618.58
2019-01-14T04:25:21.120Z,99636.81
2019-01-14T04:27:50.752Z,99653.75
2019-01-14T04:30:22.397Z,99656.88
2019-01-14T04:32:52.176Z,99643.40
2019-01-14T04:35:22.994Z,99648.28
2019-01-14T04:37:52.704Z,99633.96
2019-01-14T04:40:22.507Z,99630.73
2019-01-14T04:42:52.075Z,99632.43
2019-01-14T04:45:21.885Z,99637.59
2019-01-14T04:47:51.506Z,99643.73
2019-01-14T04:50:22.030Z,99657.37
2019-01-14T04:52:51.658Z,99651.70
2019-01-14T04:55:21.285Z,99650.51
2019-01-14T04:57:50.834Z,99635.34
2019-01-14T05:00:25.162Z,99629.45
2019-01-14T05:02:54.823Z,99655.83
2019-01-14T05:05:24.449Z,99668.57
2019-01-14T05:07:54.007Z,99649.91
2019-01-14T05:10:23.656Z,99654.02
2019-01-14T05:12:53.290Z,99640.03
2019-01-14T05:15:22.896Z,99646.52
2019-01-14T05:17:52.468Z,99655.90
2019-01-14T05:20:26.453Z,99670.50
2019-01-14T05:22:56.601Z,99688.67
2019-01-14T05:25:26.269Z,99688.57
2019-01-14T05:27:55.890Z,99691.98
2019-01-14T05:30:25.635Z,99704.37
2019-01-14T05:32:55.185Z,99700.67
2019-01-14T05:35:24.721Z,99700.84
2019-01-14T05:37:54.309Z,99700.92
2019-01-14T05:40:27.277Z,99704.58
2019-01-14T05:42:56.898Z,99722.98
2019-01-14T05:45:26.545Z,99716.17
2019-01-14T05:47:56.099Z,99720.25
2019-01-14T05:50:25.682Z,99718.03
2019-01-14T05:52:55.287Z,99717.28
2019-01-14T05:55:24.873Z,99727.75
2019-01-14T05:57:54.419Z,99733.08
2019-01-14T06:00:34.409Z,99740.31
2019-01-14T06:03:04.043Z,99732.70
2019-01-14T06:05:33.609Z,99720.33
2019-01-14T06:08:03.191Z,99720.45
2019-01-14T06:10:32.763Z,99730.87
2019-01-14T06:13:02.355Z,99737.81
2019-01-14T06:15:31.980Z,99751.23
2019-01-14T06:18:01.557Z,99739.78
2019-01-14T06:20:31.656Z,99747.38
2019-01-14T06:23:01.281Z,99749.00
2019-01-14T06:25:30.916Z,99755.04
2019-01-14T06:28:00.517Z,99762.48
2019-01-14T06:30:30.731Z,99756.58
2019-01-14T06:33:00.393Z,99759.70
2019-01-14T06:35:30.082Z,99758.23
2019-01-14T06:37:59.647Z,99755.62
2019-01-14T06:40:29.315Z,99766.05
2019-01-14T06:42:58.871Z,99781.80
2019-01-14T06:45:28.473Z,99776.87
2019-01-14T06:47:58.033Z,99784.03
2019-01-14T06:50:27.621Z,99786.17
2019-01-14T06:52:57.259Z,99784.53
2019-01-14T06:55:26.789Z,99798.10
2019-01-14T06:57:56.364Z,99807.19
2019-01-14T07:00:27.483Z,99825.70
2019-01-14T07:02:57.355Z,99818.71
2019-01-14T07:05:26.924Z,99816.77
2019-01-14T07:07:59.914Z,99815.95
2019-01-14T07:10:30.528Z,99825.45
2019-01-14T07:13:00.169Z,99837.19
2019-01-14T07:15:29.813Z,99830.12
2019-01-14T07:17:59.481Z,99849.47
2019-01-14T07:20:29.139Z,99837.14
2019-01-14T07:22:58.687Z,99843.41
2019-01-14T07:25:28.404Z,99868.30
2019-01-14T07:28:07.029Z,99853.45
2019-01-14T07:30:36.698Z,99860.83
2019-01-14T07:33:06.337Z,99864.66
2019-01-14T07:35:35.997Z,99865.27
2019-01-14T07:38:07.405Z,99878.34
2019-01-14T07:40:36.966Z,99870.70
2019-01-14T07:43:06.512Z,99875.97
2019-01-14T07:45:36.165Z,99883.86
2019-01-14T07:48:05.755Z,99877.72
2019-01-14T07:50:35.410Z,99869.97
2019-01-14T07:53:05.077Z,99863.58
2019-01-14T07:55:34.642Z,99872.74
2019-01-14T07:58:04.227Z,99873.69
2019-01-14T08:00:33.847Z,99880.54
2019-01-14T08:03:03.573Z,99891.74
2019-01-14T08:05:33.219Z,99917.53
2019-01-14T08:08:02.818Z,99915.83
2019-01-14T08:10:32.375Z,99931.17
2019-01-14T08:13:01.947Z,99930.63
2019-01-14T08:15:31.531Z,99940.71
2019-01-14T08:18:01.156Z,99938.02
2019-01-14T08:20:30.790Z,99950.69
2019-01-14T08:23:00.531Z,99953.76
2019-01-14T08:25:30.234Z,99957.27
2019-01-14T08:27:59.818Z,99953.48
2019-01-14T08:30:29.384Z,99965.34
2019-01-14T08:32:59.019Z,99969.22
2019-01-14T08:35:29.524Z,99962.48
2019-01-14T08:37:59.206Z,99971.10
2019-01-14T08:40:30.842Z,99970.42
2019-01-14T08:43:02.369Z,99983.60
2019-01-14T08:45:31.954Z,99975.17
2019-01-14T08:48:01.545Z,99991.22
2019-01-14T08:50:31.084Z,99992.37
2019-01-14T08:53:00.742Z,99995.08
2019-01-14T08:55:30.365Z,99992.98
2019-01-14T08:58:00.023Z,99998.95
2019-01-14T09:00:29.660Z,99994.64
2019-01-14T09:02:59.223Z,100016.66
2019-01-14T09:05:28.818Z,100019.03
2019-01-14T09:07:58.460Z,100014.15
2019-01-14T09:10:28.122Z,100011.48
2019-01-14T09:12:57.738Z,100021.50
2019-01-14T09:15:27.282Z,100016.28
2019-01-14T09:18:02.674Z,100010.88
2019-01-14T09:20:28.231Z,100016.53
2019-01-14T09:22:57.806Z,100014.24
2019-01-14T09:25:36.240Z,100009.15
2019-01-14T09:28:06.275Z,100012.39
2019-01-14T09:30:35.825Z,100005.59
2019-01-14T09:33:05.454Z,100012.20
2019-01-14T09:35:35.244Z,100023.11
2019-01-14T09:38:05.258Z,100022.67
2019-01-14T09:40:34.912Z,100009.44
2019-01-14T09:43:04.466Z,100026.33
2019-01-14T09:45:34.116Z,100026.03
2019-01-14T09:48:03.944Z,100033.52
2019-01-14T09:50:33.535Z,100033.36
2019-01-14T09:53:15.383Z,100039.10
2019-01-14T09:55:44.980Z,100039.70
2019-01-14T09:58:14.578Z,100043.52
2019-01-14T10:00:44.264Z,100036.88
2019-01-14T10:03:13.826Z,100055.23
2019-01-14T10:05:43.446Z,100044.02
2019-01-14T10:08:13.005Z,100048.84
2019-01-14T10:10:42.566Z,100051.73
2019-01-14T10:13:12.230Z,100039.98
2019-01-14T10:15:41.851Z,100055.92
2019-01-14T10:18:11.441Z,100053.61
2019-01-14T10:20:41.029Z,100055.98
2019-01-14T10:23:10.588Z,100047.58
2019-01-14T10:25:40.189Z,100043.41
2019-01-14T10:28:09.745Z,100044.80
2019-01-14T10:30:39.640Z,100036.13
2019-01-14T10:33:09.231Z,100046.00
2019-01-14T10:35:38.836Z,100044.80
2019-01-14T10:38:08.475Z,100063.13
2019-01-14T10:40:38.074Z,100057.81
2019-01-14T10:43:07.752Z,100067.41
2019-01-14T10:45:37.339Z,100073.61
2019-01-14T10:48:07.072Z,100072.74
2019-01-14T10:50:36.728Z,100077.70
2019-01-14T10:53:06.322Z,100080.20
2019-01-14T10:55:35.901Z,100076.16
2019-01-14T10:58:06.058Z,100084.59
2019-01-14T11:00:35.628Z,100085.45
2019-01-14T11:03:05.495Z,100101.21
2019-01-14T11:05:35.188Z,100094.08
2019-01-14T11:08:04.976Z,100081.42
2019-01-14T11:10:34.527Z,100079.80
2019-01-14T11:13:04.268Z,100087.83
2019-01-14T11:15:33.895Z,100098.42
2019-01-14T11:18:03.480Z,100105.71
2019-01-14T11:20:33.345Z,100100.47
2019-01-14T11:23:03.277Z,100110.58
2019-01-14T11:25:32.955Z,100113.22
2019-01-14T11:28:02.650Z,100144.55
2019-01-14T11:30:33.083Z,100111.80
2019-01-14T11:33:02.660Z,100109.05
2019-01-14T11:35:32.300Z,100118.03
2019-01-14T11:38:01.861Z,100113.92
2019-01-14T11:40:37.211Z,100120.55
2019-01-14T11:43:06.916Z,100115.34
2019-01-14T11:45:36.575Z,100117.70
2019-01-14T11:48:06.459Z,100106.94
2019-01-14T11:50:36.017Z,100114.05
2019-01-14T11:53:05.764Z,100118.59
2019-01-14T11:55:35.417Z,100134.15
2019-01-14T11:58:05.211Z,100142.36
2019-01-14T12:00:36.887Z,100158.53
2019-01-14T12:03:06.367Z,100172.97
2019-01-14T12:05:35.983Z,100168.05
2019-01-14T12:08:05.677Z,100152.78
2019-01-14T12:10:35.243Z,100169.28
2019-01-14T12:13:05.101Z,100171.48
2019-01-14T12:15:34.726Z,100182.11
2019-01-14T12:18:04.837Z,100180.27
2019-01-14T12:20:34.505Z,100200.52
2019-01-14T12:23:04.485Z,100174.95
2019-01-14T12:25:34.186Z,100171.84
2019-01-14T12:28:03.829Z,100174.12
2019-01-14T12:30:35.651Z,100188.83
2019-01-14T12:33:05.956Z,100195.47
2019-01-14T12:35:35.665Z,100198.55
2019-01-14T12:38:05.694Z,100200.02
2019-01-14T12:40:35.410Z,100200.31
2019-01-14T12:43:05.286Z,100189.97
2019-01-14T12:45:35.329Z,100210.50
2019-01-14T12:48:05.217Z,100207.67
2019-01-14T12:50:34.965Z,100223.71
2019-01-14T12:53:04.736Z,100195.92
2019-01-14T12:55:34.350Z,100208.72
2019-01-14T12:58:04.118Z,100214.42
2019-01-14T13:00:33.755Z,100218.20
2019-01-14T13:03:03.470Z,100224.36
2019-01-14T13:05:33.290Z,100213.83
2019-01-14T13:08:03.014Z,100251.11
2019-01-14T13:10:32.614Z,100233.22
2019-01-14T13:13:02.186Z,100236.55
2019-01-14T13:15:31.859Z,100239.00
2019-01-14T13:18:05.414Z,100240.02
2019-01-14T13:20:32.859Z,100248.28
2019-01-14T13:23:02.483Z,100243.25
2019-01-14T13:25:32.175Z,100253.11
2019-01-14T13:28:01.946Z,100259.12
2019-01-14T13:30:31.971Z,100266.41
2019-01-14T13:33:01.733Z,100268.66
2019-01-14T13:35:31.689Z,100261.59
2019-01-14T13:38:01.354Z,100257.59
2019-01-14T13:40:30.976Z,100265.91
2019-01-14T13:43:00.843Z,100278.06
2019-01-14T13:45:30.673Z,100277.23
2019-01-14T13:48:00.370Z,100281.61
2019-01-14T13:50:30.043Z,100276.44
2019-01-14T13:52:59.699Z,100291.73
2019-01-14T13:55:29.373Z,100296.75
2019-01-14T13:58:00.135Z,100301.35
2019-01-14T14:00:30.016Z,100301.26
2019-01-14T14:03:00.546Z,100297.67
2019-01-14T14:05:30.227Z,100297.64
2019-01-14T14:07:59.914Z,100302.45
2019-01-14T14:10:32.862Z,100307.80
2019-01-14T14:13:02.578Z,100321.27
2019-01-14T14:15:32.341Z,100321.86
2019-01-14T14:18:01.977Z,100319.72
2019-01-14T14:20:31.592Z,100332.50
2019-01-14T14:23:01.290Z,100337.91
2019-01-14T14:25:30.945Z,100340.38
2019-01-14T14:28:00.640Z,100345.15
2019-01-14T14:30:39.230Z,100350.46
2019-01-14T14:33:08.995Z,100364.78
2019-01-14T14:35:38.660Z,100366.00
2019-01-14T14:38:09.767Z,100367.62
2019-01-14T14:40:39.617Z,100374.78
2019-01-14T14:43:09.239Z,100379.25
2019-01-14T14:45:38.967Z,100392.04
2019-01-14T14:48:08.862Z,100382.52
2019-01-14T14:50:38.579Z,100384.98
2019-01-14T14:53:08.284Z,100381.70
2019-01-14T14:55:37.944Z,100381.70
2019-01-14T14:58:07.654Z,100389.28
2019-01-14T15:00:37.322Z,100393.42
2019-01-14T15:03:06.968Z,100399.27
2019-01-14T15:05:36.549Z,100395.10
2019-01-14T15:08:06.257Z,100400.59
2019-01-14T15:10:36.208Z,100406.82
2019-01-14T15:13:06.085Z,100427.77
2019-01-14T15:15:35.777Z,100421.34
2019-01-14T15:18:05.644Z,100438.31
2019-01-14T15:20:35.392Z,100443.00
2019-01-14T15:23:05.073Z,100447.76
2019-01-14T15:25:34.736Z,100442.88
2019-01-14T15:28:04.949Z,100450.86
2019-01-14T15:30:34.636Z,100454.69
2019-01-14T15:33:04.441Z,100461.27
2019-01-14T15:35:34.054Z,100465.69
2019-01-14T15:38:03.779Z,100466.78
2019-01-14T15:40:33.404Z,100477.58
2019-01-14T15:43:03.085Z,100480.09
2019-01-14T15:45:32.726Z,100476.83
2019-01-14T15:48:02.318Z,100482.27
2019-01-14T15:50:31.940Z,100484.37
2019-01-14T15:53:01.611Z,100486.84
2019-01-14T15:55:31.354Z,100487.58
2019-01-14T15:58:00.924Z,100492.17
2019-01-14T16:00:30.654Z,100494.20
2019-01-14T16:03:00.301Z,100491.27
2019-01-14T16:05:29.972Z,100492.95
2019-01-14T16:07:59.595Z,100492.56
2019-01-14T16:10:29.281Z,100502.77
2019-01-14T16:12:58.913Z,100504.06
2019-01-14T16:15:28.761Z,100508.16
2019-01-14T16:17:58.337Z,100518.58
2019-01-14T16:20:28.421Z,100514.98
2019-01-14T16:22:58.018Z,100524.80
2019-01-14T16:25:27.723Z,100529.05
2019-01-14T16:27:57.392Z,100528.86
2019-01-14T16:30:29.980Z,100529.69
2019-01-14T16:32:59.617Z,100533.14
2019-01-14T16:35:29.219Z,100530.45
2019-01-14T16:37:58.848Z,100524.27
2019-01-14T16:40:28.463Z,100524.79
2019-01-14T16:42:58.088Z,100529.02
2019-01-14T16:45:28.325Z,100521.95
2019-01-14T16:47:58.075Z,100523.66
2019-01-14T16:50:29.000Z,100524.75
2019-01-14T16:53:01.497Z,100532.30
2019-01-14T16:55:46.581Z,100540.78
2019-01-14T16:58:16.232Z,100545.09
2019-01-14T17:00:45.962Z,100537.60
2019-01-14T17:03:15.601Z,100545.80
2019-01-14T17:05:45.310Z,100548.33
2019-01-14T17:08:14.931Z,100550.75
2019-01-14T17:10:44.617Z,100559.98
2019-01-14T17:13:14.319Z,100559.02
2019-01-14T17:15:43.977Z,100563.45
2019-01-14T17:18:13.640Z,100553.33
2019-01-14T17:20:43.360Z,100565.46
2019-01-14T17:23:13.030Z,100568.42
2019-01-14T17:25:42.718Z,100567.62
2019-01-14T17:28:12.332Z,100574.74
2019-01-14T17:30:42.038Z,100575.77
2019-01-14T17:33:11.869Z,100580.64
2019-01-14T17:35:41.511Z,100588.53
2019-01-14T17:38:11.134Z,100592.89
2019-01-14T17:40:40.794Z,100593.13
2019-01-14T17:43:10.455Z,100594.81
2019-01-14T17:45:40.144Z,100598.98
2019-01-14T17:48:09.819Z,100625.38
2019-01-14T17:50:39.443Z,100613.69
2019-01-14T17:53:09.027Z,100616.71
2019-01-14T17:55:38.689Z,100621.83
2019-01-14T17:58:08.383Z,100633.34
2019-01-14T18:00:38.070Z,100633.84
2019-01-14T18:03:07.657Z,100639.27
2019-01-14T18:05:37.400Z,100649.69
2019-01-14T18:08:07.017Z,100636.07
2019-01-14T18:10:40.164Z,100640.15
2019-01-14T18:13:07.960Z,100642.09
2019-01-14T18:15:37.582Z,100645.33
2019-01-14T18:18:07.298Z,100625.09
2019-01-14T18:20:36.950Z,100634.42
2019-01-14T18:23:06.635Z,100639.38
2019-01-14T18:25:36.241Z,100647.83
2019-01-14T18:28:05.921Z,100653.23
2019-01-14T18:30:35.585Z,100657.70
2019-01-14T18:33:05.312Z,100656.56
2019-01-14T18:35:35.023Z,100657.27
2019-01-14T18:38:04.863Z,100661.44
2019-01-14T18:40:34.538Z,100665.78
2019-01-14T18:43:04.239Z,100668.38
2019-01-14T18:45:33.914Z,100673.93
2019-01-14T18:48:04.079Z,100679.84
2019-01-14T18:50:33.725Z,100683.27
2019-01-14T18:53:03.391Z,100681.27
2019-01-14T18:55:32.995Z,100689.35
2019-01-14T18:58:02.590Z,100685.74
2019-01-14T19:00:32.257Z,100685.16
2019-01-14T19:03:02.129Z,100695.20
2019-01-14T19:05:31.813Z,100698.94
2019-01-14T19:08:01.527Z,100702.52
2019-01-14T19:10:31.136Z,100702.98
2019-01-14T19:13:00.860Z,100704.87
2019-01-14T19:15:30.471Z,100698.66
2019-01-14T19:18:00.193Z,100705.72
2019-01-14T19:20:30.051Z,100706.74
2019-01-14T19:22:59.828Z,100711.55
2019-01-14T19:25:29.522Z,100719.39
2019-01-14T19:27:59.251Z,100716.45
2019-01-14T19:30:28.975Z,100717.23
2019-01-14T19:32:58.621Z,100709.39
2019-01-14T19:35:28.296Z,100719.33
2019-01-14T19:37:57.923Z,100719.83
2019-01-14T19:40:27.628Z,100729.12
2019-01-14T19:42:57.362Z,100722.77
2019-01-14T19:45:27.047Z,100729.52
2019-01-14T19:47:56.825Z,100716.69
2019-01-14T19:50:26.590Z,100732.48
2019-01-14T19:52:56.917Z,100739.73
2019-01-14T19:55:26.647Z,100735.00
2019-01-14T19:57:56.454Z,100733.56
2019-01-14T20:00:31.743Z,100751.82
2019-01-14T20:03:01.547Z,100744.36
2019-01-14T20:05:31.405Z,100744.79
2019-01-14T20:08:01.204Z,100745.63
2019-01-14T20:10:30.883Z,100750.59
2019-01-14T20:13:00.607Z,100746.80
2019-01-14T20:15:30.469Z,100743.77
2019-01-14T20:18:00.997Z,100754.45
2019-01-14T20:20:30.647Z,100747.02
2019-01-14T20:23:00.399Z,100746.48
2019-01-14T20:25:30.220Z,100749.66
2019-01-14T20:27:59.861Z,100741.12
2019-01-14T20:30:29.592Z,100740.75
2019-01-14T20:32:59.262Z,100739.42
2019-01-14T20:35:28.997Z,100746.48
2019-01-14T20:37:58.621Z,100738.65
2019-01-14T20:40:28.276Z,100740.31
2019-01-14T20:42:57.905Z,100734.05
2019-01-14T20:45:28.000Z,100745.25
2019-01-14T20:47:57.727Z,100738.86
2019-01-14T20:50:27.426Z,100738.09
2019-01-14T20:52:57.201Z,100737.30
2019-01-14T20:55:26.849Z,100742.48
2019-01-14T20:57:56.540Z,100742.41
2019-01-14T21:00:29.107Z,100740.31
2019-01-14T21:02:58.752Z,100745.68
2019-01-14T21:05:28.593Z,100742.72
2019-01-14T21:07:58.302Z,100734.05
2019-01-14T21:10:28.107Z,100742.78
2019-01-14T21:12:57.778Z,100737.20
2019-01-14T21:15:27.415Z,100738.98
2019-01-14T21:17:57.084Z,100740.50
2019-01-14T21:20:26.792Z,100751.30
2019-01-14T21:22:56.847Z,100753.70
2019-01-14T21:25:26.606Z,100752.14
2019-01-14T21:27:56.281Z,100766.27
2019-01-14T21:30:27.128Z,100760.92
2019-01-14T21:32:56.828Z,100763.43
2019-01-14T21:35:26.696Z,100768.55
2019-01-14T21:37:58.254Z,100771.20
2019-01-14T21:40:28.048Z,100776.97
2019-01-14T21:42:57.675Z,100777.77
2019-01-14T21:45:27.354Z,100795.14
2019-01-14T21:47:56.993Z,100790.61
2019-01-14T21:50:26.669Z,100785.09
2019-01-14T21:52:56.255Z,100795.16
2019-01-14T21:55:26.514Z,100787.94
2019-01-14T21:57:56.109Z,100795.34
2019-01-14T22:00:25.847Z,100795.41
2019-01-14T22:02:55.579Z,100802.41
2019-01-14T22:05:25.259Z,100799.50
2019-01-14T22:07:54.931Z,100802.84
2019-01-14T22:10:26.943Z,100801.48
2019-01-14T22:12:56.593Z,100800.70
2019-01-14T22:15:26.279Z,100809.48
2019-01-14T22:17:55.931Z,100807.47
2019-01-14T22:20:27.580Z,100806.66
2019-01-14T22:22:57.244Z,100807.90
2019-01-14T22:25:26.879Z,100795.59
2019-01-14T22:27:56.482Z,100807.03
2019-01-14T22:30:31.391Z,100810.95
2019-01-14T22:33:01.049Z,100807.64
2019-01-14T22:35:30.745Z,100811.27
2019-01-14T22:38:01.649Z,100810.58
2019-01-14T22:40:31.429Z,100805.08
2019-01-14T22:43:01.408Z,100808.30
2019-01-14T22:45:31.179Z,100798.05
2019-01-14T22:48:00.763Z,100801.14
2019-01-14T22:50:30.333Z,100815.95
2019-01-14T22:53:00.030Z,100811.08
2019-01-14T22:55:29.706Z,100818.86
2019-01-14T22:57:59.303Z,100812.64
2019-01-14T23:01:10.374Z,100819.66
2019-01-14T23:03:40.164Z,100817.84
2019-01-14T23:06:10.186Z,100816.52
2019-01-14T23:08:39.795Z,100818.98
2019-01-14T23:11:09.477Z,100830.28
2019-01-14T23:13:39.239Z,100833.49
2019-01-14T23:16:08.982Z,100830.35
2019-01-14T23:18:38.575Z,100826.55
2019-01-14T23:21:08.199Z,100821.24
2019-01-14T23:23:42.651Z,100833.95
2019-01-14T23:26:15.186Z,100829.27
2019-01-14T23:28:46.851Z,100828.95
2019-01-14T23:31:16.617Z,100835.06
2019-01-14T23:33:46.238Z,100840.37
2019-01-14T23:36:15.870Z,100843.81
2019-01-14T23:38:45.473Z,100849.12
2019-01-14T23:41:15.171Z,100841.03
2019-01-14T23:43:44.851Z,100848.23
2019-01-14T23:46:14.575Z,100845.70
2019-01-14T23:48:44.195Z,100843.80
2019-01-14T23:51:13.858Z,100844.33
2019-01-14T23:53:43.539Z,100851.63
2019-01-14T23:56:13.303Z,100840.91
2019-01-14T23:58:42.933Z,100854.03
